KRHV/RHV METAR and TAF weather

Enter ICAO airport designator
Station Type Date Time Source
KRHV METAR 2018/12/13 21:50 UTC NOAA

KRHV 132150Z 00000KT 10SM SKC 18/03 A3016


Station Type Date Time Source
KRHV Decoded METAR 2018/12/13 21:50 UTC NOAA

San Jose / Reid / Hillv, CA, United States (KRHV) 37-20N 121-49W
Dec 13, 2018 - 04:50 PM EST / 2018.12.13 2150 UTC
Wind: Calm:0
Visibility: 10 mile(s):0
Sky conditions: clear
Temperature: 64 F (18 C)
Dew Point: 37 F (3 C)
Relative Humidity: 36%
Pressure (altimeter): 30.16 in. Hg (1021 hPa)
ob: KRHV 132150Z 00000KT 10SM SKC 18/03 A3016
cycle: 22

Station Type Date Time Source
KRHV TAF UTC NOAA

Error!


Example: see airport list